createdAt,value
2022-09-05T00:01:27.551Z,5.13
2022-09-05T00:04:05.025Z,8.30
2022-09-05T00:06:55.721Z,5.53
2022-09-05T00:09:39.782Z,6.23
2022-09-05T00:12:12.027Z,6.53
2022-09-05T00:15:16.598Z,7.87
2022-09-05T00:20:18.172Z,6.03
2022-09-05T00:24:25.044Z,7.10
2022-09-05T00:24:25.996Z,9.30
2022-09-05T00:26:42.285Z,6.47
2022-09-05T00:29:44.948Z,6.17
2022-09-05T00:32:23.517Z,6.70
2022-09-05T00:35:19.140Z,9.80
2022-09-05T00:37:49.278Z,8.63
2022-09-05T00:40:26.501Z,8.87
2022-09-05T00:42:58.064Z,9.80
2022-09-05T00:45:33.832Z,5.70
2022-09-05T00:48:09.829Z,6.20
2022-09-05T00:50:52.162Z,5.27
2022-09-05T00:53:23.249Z,6.13
2022-09-05T00:55:59.118Z,8.63
2022-09-05T00:58:56.996Z,6.90
2022-09-05T01:01:35.064Z,5.67
2022-09-05T01:04:18.245Z,4.80
2022-09-05T01:06:57.977Z,3.80
2022-09-05T01:09:34.177Z,5.57
2022-09-05T01:12:20.667Z,9.60
2022-09-05T01:15:09.415Z,9.10
2022-09-05T01:17:52.691Z,8.67
2022-09-05T01:20:31.343Z,7.47
2022-09-05T01:23:15.535Z,9.97
2022-09-05T01:25:58.003Z,7.83
2022-09-05T01:29:16.677Z,7.37
2022-09-05T01:31:27.684Z,8.93
2022-09-05T01:33:58.785Z,8.30
2022-09-05T01:36:51.377Z,8.70
2022-09-05T01:40:11.261Z,6.40
2022-09-05T01:42:25.085Z,6.00
2022-09-05T01:44:58.276Z,9.87
2022-09-05T01:47:40.706Z,5.20
2022-09-05T01:50:17.189Z,6.10
2022-09-05T01:53:28.947Z,7.63
2022-09-05T01:56:11.337Z,8.57
2022-09-05T01:58:53.347Z,7.27
2022-09-05T02:01:32.906Z,10.37
2022-09-05T02:04:13.525Z,6.67
2022-09-05T02:06:47.749Z,6.20
2022-09-05T02:09:29.436Z,4.73
2022-09-05T02:11:59.042Z,5.10
2022-09-05T02:14:34.149Z,5.37
2022-09-05T02:17:23.658Z,6.10
2022-09-05T02:20:10.267Z,4.10
2022-09-05T02:22:44.259Z,8.07
2022-09-05T02:26:00.640Z,8.00
2022-09-05T02:28:14.343Z,5.70
2022-09-05T02:30:48.480Z,10.87
2022-09-05T02:33:34.800Z,9.57
2022-09-05T02:36:09.207Z,5.47
2022-09-05T02:42:23.940Z,5.60
2022-09-05T02:45:16.998Z,5.80
2022-09-05T02:45:18.938Z,5.33
2022-09-05T02:47:24.787Z,8.10
2022-09-05T02:51:17.279Z,6.43
2022-09-05T02:57:37.962Z,7.40
2022-09-05T02:57:38.339Z,5.93
2022-09-05T02:59:09.552Z,10.80
2022-09-05T03:01:57.213Z,5.20
2022-09-05T03:04:31.046Z,7.73
2022-09-05T03:07:16.219Z,6.17
2022-09-05T03:10:06.349Z,14.13
2022-09-05T03:13:25.214Z,8.93
2022-09-05T03:16:18.607Z,8.80
2022-09-05T03:19:46.063Z,9.97
2022-09-05T03:23:01.202Z,10.33
2022-09-05T03:26:13.305Z,8.00
2022-09-05T03:29:04.524Z,10.73
2022-09-05T03:32:01.718Z,7.07
2022-09-05T03:34:54.874Z,6.17
2022-09-05T03:37:55.924Z,7.00
2022-09-05T03:40:49.735Z,5.40
2022-09-05T03:43:53.115Z,5.03
2022-09-05T03:46:46.010Z,5.27
2022-09-05T03:52:47.097Z,7.37
2022-09-05T03:57:25.242Z,5.77
2022-09-05T03:57:28.411Z,8.03
2022-09-05T03:58:56.894Z,7.40
2022-09-05T04:04:22.684Z,6.33
2022-09-05T04:08:18.934Z,6.40
2022-09-05T04:08:24.351Z,5.40
2022-09-05T04:10:15.783Z,7.20
2022-09-05T04:12:50.780Z,10.17
2022-09-05T04:15:32.674Z,6.80
2022-09-05T04:18:05.214Z,9.43
2022-09-05T04:20:40.559Z,10.90
2022-09-05T04:23:24.995Z,4.67
2022-09-05T04:26:11.326Z,9.00
2022-09-05T04:28:54.207Z,5.00
2022-09-05T04:31:30.750Z,6.57
2022-09-05T04:34:06.902Z,14.50
2022-09-05T04:36:36.534Z,7.77
2022-09-05T04:39:11.765Z,7.20
2022-09-05T04:41:42.372Z,7.47
2022-09-05T04:44:14.893Z,7.00
2022-09-05T04:46:49.168Z,4.47
2022-09-05T04:49:20.511Z,7.00
2022-09-05T04:52:31.554Z,6.07
2022-09-05T04:55:04.464Z,7.13
2022-09-05T04:57:36.975Z,5.33
2022-09-05T05:04:19.103Z,5.33
2022-09-05T05:06:12.053Z,5.20
2022-09-05T05:06:15.941Z,6.43
2022-09-05T05:08:52.874Z,5.37
2022-09-05T05:17:25.324Z,10.77
2022-09-05T05:18:11.158Z,11.07
2022-09-05T05:18:12.508Z,6.70
2022-09-05T05:20:42.044Z,10.57
2022-09-05T05:23:15.812Z,7.33
2022-09-05T05:25:48.685Z,6.07
2022-09-05T05:28:24.777Z,11.23
2022-09-05T05:31:01.446Z,4.80
2022-09-05T05:33:35.820Z,4.70
2022-09-05T05:36:09.208Z,5.13
2022-09-05T05:38:44.258Z,8.40
2022-09-05T05:41:19.682Z,6.27
2022-09-05T05:43:48.554Z,7.40
2022-09-05T05:46:27.667Z,4.30
2022-09-05T05:49:04.033Z,5.03
2022-09-05T05:52:02.053Z,5.63
2022-09-05T05:54:34.435Z,9.50
2022-09-05T05:57:38.707Z,4.70
2022-09-05T06:00:16.221Z,9.20
2022-09-05T06:03:27.534Z,5.03
2022-09-05T06:06:09.307Z,5.27
2022-09-05T06:14:48.636Z,4.60
2022-09-05T06:14:50.551Z,5.73
2022-09-05T06:15:27.041Z,5.37
2022-09-05T06:18:45.665Z,5.90
2022-09-05T06:22:06.976Z,5.27
2022-09-05T06:25:17.611Z,5.67
2022-09-05T06:28:17.814Z,11.40
2022-09-05T06:31:24.588Z,5.93
2022-09-05T06:34:35.351Z,5.80
2022-09-05T06:37:24.999Z,6.13
2022-09-05T06:40:11.967Z,11.30
2022-09-05T06:42:59.230Z,5.93
2022-09-05T06:45:41.178Z,7.03
2022-09-05T06:48:17.161Z,6.13
2022-09-05T06:51:09.315Z,5.03
2022-09-05T06:53:52.383Z,6.17
2022-09-05T06:56:44.661Z,6.17
2022-09-05T06:59:48.828Z,6.90
2022-09-05T07:02:58.026Z,5.40
2022-09-05T07:05:37.082Z,6.70
2022-09-05T07:08:34.129Z,7.03
2022-09-05T07:11:15.824Z,6.20
2022-09-05T07:13:59.078Z,6.90
2022-09-05T07:16:40.305Z,7.43
2022-09-05T07:19:27.095Z,7.43
2022-09-05T07:22:46.143Z,6.73
2022-09-05T07:25:10.503Z,11.07
2022-09-05T07:27:46.827Z,7.07
2022-09-05T07:30:31.199Z,6.90
2022-09-05T07:33:00.654Z,10.03
2022-09-05T07:35:31.237Z,8.20
2022-09-05T07:38:17.294Z,9.20
2022-09-05T07:40:53.085Z,7.47
2022-09-05T07:43:26.938Z,7.10
2022-09-05T07:46:11.982Z,7.50
2022-09-05T07:48:43.919Z,6.80
2022-09-05T07:56:48.098Z,9.53
2022-09-05T07:57:02.241Z,6.90
2022-09-05T07:57:27.077Z,6.93
2022-09-05T08:00:23.031Z,6.63
2022-09-05T08:03:00.275Z,7.60
2022-09-05T08:05:44.094Z,14.33
2022-09-05T08:08:16.147Z,7.00
2022-09-05T08:11:22.145Z,8.00
2022-09-05T08:13:59.365Z,6.77
2022-09-05T08:16:44.234Z,6.60
2022-09-05T08:19:38.112Z,9.90
2022-09-05T08:22:08.255Z,8.13
2022-09-05T08:24:39.820Z,7.37
2022-09-05T08:27:16.308Z,7.00
2022-09-05T08:29:47.287Z,7.07
2022-09-05T08:32:22.510Z,5.93
2022-09-05T08:34:55.408Z,6.77
2022-09-05T08:37:26.857Z,6.20
2022-09-05T08:40:10.279Z,6.20
2022-09-05T08:42:49.517Z,6.23
2022-09-05T08:46:44.407Z,6.40
2022-09-05T08:48:40.259Z,7.33
2022-09-05T08:51:25.844Z,6.90
2022-09-05T08:54:08.847Z,6.97
2022-09-05T08:56:41.907Z,7.63
2022-09-05T08:59:31.741Z,5.70
2022-09-05T09:02:47.619Z,6.10
2022-09-05T09:05:25.039Z,5.73
2022-09-05T09:08:22.189Z,6.43
2022-09-05T09:10:59.762Z,6.10
2022-09-05T09:13:39.848Z,5.67
2022-09-05T09:16:11.956Z,5.70
2022-09-05T09:18:59.408Z,7.50
2022-09-05T09:21:32.611Z,6.60
2022-09-05T09:24:08.692Z,5.77
2022-09-05T09:26:42.049Z,8.90
2022-09-05T09:29:12.473Z,6.17
2022-09-05T09:31:52.868Z,5.80
2022-09-05T09:34:59.737Z,5.97
2022-09-05T09:37:50.634Z,6.63
2022-09-05T09:40:31.778Z,7.67
2022-09-05T09:43:07.150Z,5.90
2022-09-05T09:46:01.645Z,9.43
2022-09-05T09:49:04.057Z,5.43
2022-09-05T09:51:58.322Z,6.60
2022-09-05T09:55:01.954Z,5.87
2022-09-05T09:57:54.502Z,6.27
2022-09-05T10:00:24.212Z,5.33
2022-09-05T10:07:07.311Z,5.10
2022-09-05T10:10:46.045Z,5.20
2022-09-05T10:10:47.496Z,4.87
2022-09-05T10:13:08.196Z,4.33
2022-09-05T10:15:48.924Z,5.03
2022-09-05T10:18:40.861Z,3.93
2022-09-05T10:21:35.641Z,5.03
2022-09-05T10:24:26.991Z,5.10
2022-09-05T10:27:32.605Z,5.70
2022-09-05T10:30:08.279Z,5.73
2022-09-05T10:35:15.400Z,5.50
2022-09-05T10:35:35.733Z,4.83
2022-09-05T10:38:11.430Z,5.30
2022-09-05T10:41:19.787Z,5.30
2022-09-05T10:43:32.248Z,4.83
2022-09-05T10:46:09.520Z,4.77
2022-09-05T10:48:47.970Z,5.03
2022-09-05T10:51:27.200Z,5.27
2022-09-05T10:54:09.182Z,6.97
2022-09-05T10:56:41.333Z,9.50
2022-09-05T11:00:03.392Z,6.57
2022-09-05T11:02:27.907Z,6.50
2022-09-05T11:05:06.143Z,7.50
2022-09-05T11:07:42.010Z,7.13
2022-09-05T11:10:17.740Z,7.37
2022-09-05T11:12:59.999Z,7.00
2022-09-05T11:15:35.381Z,6.80
2022-09-05T11:18:06.885Z,8.70
2022-09-05T11:20:52.491Z,8.13
2022-09-05T11:23:23.219Z,7.63
2022-09-05T11:26:01.094Z,7.70
2022-09-05T11:28:36.975Z,6.90
2022-09-05T11:31:10.820Z,5.90
2022-09-05T11:39:58.223Z,5.27
2022-09-05T11:40:07.556Z,7.13
2022-09-05T11:40:36.561Z,5.70
2022-09-05T11:43:44.369Z,6.00
2022-09-05T11:46:29.623Z,5.60
2022-09-05T11:49:32.474Z,6.37
2022-09-05T11:52:28.205Z,6.80
2022-09-05T11:55:28.597Z,6.00
2022-09-05T11:58:27.108Z,5.33
2022-09-05T12:01:41.902Z,7.60
2022-09-05T12:04:17.110Z,5.40
2022-09-05T12:07:26.830Z,6.20
2022-09-05T12:10:47.091Z,6.20
2022-09-05T12:13:21.890Z,5.73
2022-09-05T12:16:08.363Z,5.07
2022-09-05T12:18:45.727Z,5.87
2022-09-05T12:21:27.295Z,5.60
2022-09-05T12:24:49.746Z,6.10
2022-09-05T12:27:39.808Z,5.10
2022-09-05T12:29:51.171Z,5.00
2022-09-05T12:34:46.774Z,6.17
2022-09-05T12:40:56.858Z,6.20
2022-09-05T12:41:42.270Z,6.00
2022-09-05T12:41:46.107Z,4.70
2022-09-05T12:44:39.567Z,7.20
2022-09-05T12:47:17.130Z,6.90
2022-09-05T12:50:02.722Z,6.33
2022-09-05T12:52:39.451Z,4.87
2022-09-05T12:55:11.065Z,6.13
2022-09-05T13:02:29.408Z,5.37
2022-09-05T13:03:04.167Z,4.40
2022-09-05T13:03:32.485Z,4.60
2022-09-05T13:06:06.815Z,4.60
2022-09-05T13:08:51.441Z,6.57
2022-09-05T13:14:47.749Z,4.93
2022-09-05T13:14:59.902Z,4.40
2022-09-05T13:17:17.034Z,6.80
2022-09-05T13:19:51.816Z,6.00
2022-09-05T13:22:22.347Z,11.70
2022-09-05T13:24:53.776Z,4.50
2022-09-05T13:27:25.359Z,5.93
2022-09-05T13:30:07.203Z,5.13
2022-09-05T13:38:03.938Z,4.37
2022-09-05T13:38:06.055Z,5.37
2022-09-05T13:38:48.320Z,3.83
2022-09-05T13:41:27.261Z,4.90
2022-09-05T13:44:25.232Z,4.97
2022-09-05T13:46:58.553Z,4.60
2022-09-05T13:49:33.528Z,5.13
2022-09-05T13:52:16.940Z,4.97
2022-09-05T13:54:51.283Z,6.63
2022-09-05T13:57:32.502Z,6.10
2022-09-05T14:00:28.088Z,4.70
2022-09-05T14:03:40.236Z,6.03
2022-09-05T14:06:46.014Z,4.87
2022-09-05T14:09:40.091Z,4.67
2022-09-05T14:12:17.150Z,3.97
2022-09-05T14:17:58.435Z,4.80
2022-09-05T14:20:49.865Z,6.10
2022-09-05T14:23:22.568Z,5.03
2022-09-05T14:25:54.615Z,5.23
2022-09-05T14:28:27.157Z,4.97
2022-09-05T14:36:23.541Z,4.90
2022-09-05T14:37:42.039Z,4.73
2022-09-05T14:37:51.594Z,4.70
2022-09-05T14:40:29.675Z,6.20
2022-09-05T14:43:34.125Z,5.30
2022-09-05T14:46:25.669Z,5.07
2022-09-05T14:49:12.874Z,4.93
2022-09-05T14:51:47.760Z,5.17
2022-09-05T15:00:47.412Z,5.00
2022-09-05T15:02:52.183Z,4.33
2022-09-05T15:03:03.633Z,5.80
2022-09-05T15:05:41.834Z,5.27
2022-09-05T15:09:28.613Z,6.03
2022-09-05T15:12:15.017Z,5.67
2022-09-05T15:14:03.999Z,5.50
2022-09-05T15:16:35.883Z,5.53
2022-09-05T15:19:05.372Z,6.30
2022-09-05T15:21:38.283Z,4.80
2022-09-05T15:24:21.419Z,4.87
2022-09-05T15:26:53.173Z,5.70
2022-09-05T15:29:25.798Z,5.67
2022-09-05T15:32:09.106Z,5.63
2022-09-05T15:34:38.742Z,5.50
2022-09-05T15:37:29.250Z,6.37
2022-09-05T15:40:23.297Z,5.87
2022-09-05T15:42:55.243Z,6.27
2022-09-05T15:45:28.024Z,7.73
2022-09-05T15:48:08.750Z,5.27
2022-09-05T15:50:42.372Z,5.03
2022-09-05T15:53:15.046Z,5.30
2022-09-05T15:55:49.487Z,6.40
2022-09-05T15:58:53.904Z,5.80
2022-09-05T16:01:38.459Z,5.67
2022-09-05T16:10:27.276Z,5.93
2022-09-05T16:10:44.977Z,5.27
2022-09-05T16:10:48.665Z,7.20
2022-09-05T16:12:47.498Z,5.43
2022-09-05T16:16:27.061Z,6.40
2022-09-05T16:23:17.724Z,4.83
2022-09-05T16:23:29.142Z,4.67
2022-09-05T16:24:05.709Z,6.00
2022-09-05T16:26:39.297Z,5.47
2022-09-05T16:29:25.324Z,5.93
2022-09-05T16:32:11.066Z,4.80
2022-09-05T16:34:52.610Z,4.73
2022-09-05T16:37:24.885Z,4.80
2022-09-05T16:39:58.161Z,5.47
2022-09-05T16:42:47.045Z,7.60
2022-09-05T16:45:23.888Z,5.00
2022-09-05T16:47:57.065Z,6.30
2022-09-05T16:50:34.486Z,5.23
2022-09-05T16:53:30.896Z,7.07
2022-09-05T16:56:04.136Z,6.17
2022-09-05T16:58:34.079Z,5.73
2022-09-05T17:01:20.431Z,5.77
2022-09-05T17:03:55.495Z,6.20
2022-09-05T17:06:45.101Z,9.77
2022-09-05T17:09:23.022Z,7.80
2022-09-05T17:12:00.619Z,5.43
2022-09-05T17:14:35.924Z,9.10
2022-09-05T17:18:18.292Z,8.33
2022-09-05T17:20:07.576Z,6.50
2022-09-05T17:25:28.227Z,7.53
2022-09-05T17:29:26.996Z,10.83
2022-09-05T17:29:49.899Z,7.77
2022-09-05T17:31:57.160Z,8.60
2022-09-05T17:34:49.692Z,11.50
2022-09-05T17:37:44.854Z,18.73
2022-09-05T17:40:48.264Z,41.13
2022-09-05T17:43:28.770Z,88.47
2022-09-05T17:46:13.326Z,42.93
2022-09-05T17:49:19.796Z,12.70
2022-09-05T17:52:21.020Z,17.20
2022-09-05T17:54:53.051Z,14.63
2022-09-05T17:57:45.191Z,21.77
2022-09-05T18:01:01.169Z,22.47
2022-09-05T18:04:16.833Z,13.23
2022-09-05T18:07:00.676Z,7.43
2022-09-05T18:10:12.705Z,8.80
2022-09-05T18:13:14.058Z,12.63
2022-09-05T18:16:08.542Z,7.17
2022-09-05T18:19:28.265Z,13.47
2022-09-05T18:21:26.716Z,6.83
2022-09-05T18:24:02.408Z,8.63
2022-09-05T18:26:39.400Z,7.63
2022-09-05T18:29:14.896Z,6.27
2022-09-05T18:32:03.791Z,6.67
2022-09-05T18:34:43.205Z,9.80
2022-09-05T18:38:03.968Z,8.40
2022-09-05T18:40:46.020Z,7.20
2022-09-05T18:43:24.207Z,13.20
2022-09-05T18:45:54.049Z,6.47
2022-09-05T18:48:29.948Z,6.57
2022-09-05T18:51:15.334Z,7.37
2022-09-05T18:53:47.601Z,6.57
2022-09-05T18:56:27.585Z,7.80
2022-09-05T18:59:10.045Z,7.13
2022-09-05T19:01:42.112Z,7.90
2022-09-05T19:04:16.047Z,16.17
2022-09-05T19:07:08.197Z,8.07
2022-09-05T19:09:37.649Z,14.03
2022-09-05T19:12:16.213Z,13.23
2022-09-05T19:14:58.902Z,12.17
2022-09-05T19:17:34.994Z,11.13
2022-09-05T19:20:31.743Z,9.03
2022-09-05T19:23:12.049Z,7.07
2022-09-05T19:25:43.999Z,18.23
2022-09-05T19:33:46.843Z,7.80
2022-09-05T19:36:58.521Z,8.03
2022-09-05T19:37:05.767Z,12.13
2022-09-05T19:37:29.084Z,6.17
2022-09-05T19:44:37.611Z,9.20
2022-09-05T19:47:40.837Z,7.43
2022-09-05T19:47:42.606Z,5.83
2022-09-05T19:48:26.103Z,8.20
2022-09-05T19:50:56.135Z,7.50
2022-09-05T19:53:25.504Z,11.83
2022-09-05T19:55:54.686Z,7.13
2022-09-05T19:58:24.746Z,10.93
2022-09-05T20:01:02.775Z,8.70
2022-09-05T20:03:38.198Z,8.47
2022-09-05T20:06:26.775Z,7.03
2022-09-05T20:09:15.553Z,7.07
2022-09-05T20:11:47.431Z,8.30
2022-09-05T20:14:21.421Z,8.63
2022-09-05T20:16:50.706Z,8.63
2022-09-05T20:19:41.287Z,9.00
2022-09-05T20:22:47.185Z,10.60
2022-09-05T20:25:01.604Z,8.93
2022-09-05T20:27:31.188Z,15.67
2022-09-05T20:30:01.761Z,7.43
2022-09-05T20:32:38.634Z,10.40
2022-09-05T20:42:55.437Z,7.20
2022-09-05T20:43:16.318Z,7.20
2022-09-05T20:43:18.924Z,10.10
2022-09-05T20:43:57.448Z,6.63
2022-09-05T20:47:54.811Z,6.73
2022-09-05T20:54:10.605Z,14.27
2022-09-05T20:54:27.180Z,7.93
2022-09-05T20:55:37.899Z,14.67
2022-09-05T20:57:50.885Z,8.03
2022-09-05T21:00:22.412Z,6.83
2022-09-05T21:02:56.209Z,11.93
2022-09-05T21:05:27.845Z,8.43
2022-09-05T21:08:23.325Z,6.87
2022-09-05T21:10:55.790Z,7.03
2022-09-05T21:13:27.241Z,7.00
2022-09-05T21:15:55.844Z,7.77
2022-09-05T21:18:31.386Z,6.43
2022-09-05T21:21:17.303Z,8.20
2022-09-05T21:24:17.478Z,8.50
2022-09-05T21:26:47.715Z,7.20
2022-09-05T21:29:17.697Z,7.93
2022-09-05T21:31:48.317Z,7.07
2022-09-05T21:34:24.821Z,7.40
2022-09-05T21:37:01.417Z,7.40
2022-09-05T21:39:46.466Z,9.10
2022-09-05T21:45:08.510Z,7.70
2022-09-05T21:47:39.316Z,9.50
2022-09-05T21:48:07.186Z,7.53
2022-09-05T21:50:42.875Z,10.07
2022-09-05T21:55:38.806Z,6.63
2022-09-05T21:59:28.486Z,7.07
2022-09-05T21:59:29.833Z,7.60
2022-09-05T22:01:52.256Z,6.90
2022-09-05T22:04:22.271Z,9.73
2022-09-05T22:06:53.089Z,7.50
2022-09-05T22:09:23.142Z,7.67
2022-09-05T22:11:52.788Z,7.67
2022-09-05T22:14:22.741Z,12.70
2022-09-05T22:16:55.580Z,8.83
2022-09-05T22:19:27.054Z,8.13
2022-09-05T22:22:15.699Z,9.40
2022-09-05T22:24:47.461Z,15.77
2022-09-05T22:27:19.948Z,8.43
2022-09-05T22:29:50.885Z,8.67
2022-09-05T22:32:26.488Z,7.97
2022-09-05T22:35:27.946Z,7.67
2022-09-05T22:37:59.527Z,7.57
2022-09-05T22:40:28.956Z,6.63
2022-09-05T22:42:59.403Z,9.23
2022-09-05T22:45:28.011Z,7.30
2022-09-05T22:47:56.353Z,9.77
2022-09-05T22:50:25.162Z,10.53
2022-09-05T22:52:53.573Z,8.57
2022-09-05T22:55:22.078Z,11.03
2022-09-05T22:57:50.283Z,7.93
2022-09-05T23:00:21.463Z,9.50
2022-09-05T23:02:52.722Z,8.10
2022-09-05T23:05:21.528Z,10.30
2022-09-05T23:07:49.747Z,10.07
2022-09-05T23:10:18.286Z,6.77
2022-09-05T23:12:46.568Z,7.33
2022-09-05T23:15:14.804Z,7.07
2022-09-05T23:17:44.421Z,7.57
2022-09-05T23:20:12.828Z,7.93
2022-09-05T23:22:43.151Z,8.67
2022-09-05T23:25:11.653Z,6.97
2022-09-05T23:27:40.142Z,7.53
2022-09-05T23:30:09.626Z,8.13
2022-09-05T23:32:37.912Z,7.33
2022-09-05T23:35:07.994Z,7.10
2022-09-05T23:37:36.462Z,8.13
2022-09-05T23:40:05.428Z,7.70
2022-09-05T23:42:33.743Z,7.63
2022-09-05T23:45:02.084Z,7.60
2022-09-05T23:47:30.263Z,8.87
2022-09-05T23:49:58.499Z,10.93
2022-09-05T23:52:28.074Z,7.50
2022-09-05T23:54:56.751Z,10.43
2022-09-05T23:57:26.040Z,8.83
2022-09-05T23:59:54.225Z,8.23
